Time;durP1;ratioP1;P1;durP2;ratioP2;P2;SDS_P1;SDS_P2;PMS_P1;PMS_P2;Temp;Humidity;BMP_temperature;BMP_pressure;BME280_temperature;BME280_humidity;BME280_pressure;Samples;Min_cycle;Max_cycle;Signal;HPM_P1;HPM_P2
2023/10/31 00:00:44;;;;;;;3.60;1.42;;;10.60;99.90;;;;;;4963818;28;20299;-76
2023/10/31 00:03:10;;;;;;;1.40;0.90;;;10.60;99.90;;;;;;4962102;28;20042;-76
2023/10/31 00:05:36;;;;;;;4.40;1.10;;;10.50;99.90;;;;;;4962290;28;20153;-75
2023/10/31 00:08:01;;;;;;;3.30;1.95;;;10.60;99.90;;;;;;4974557;28;20515;-75
2023/10/31 00:10:27;;;;;;;1.50;1.10;;;10.60;99.90;;;;;;4981495;28;20125;-76
2023/10/31 00:12:53;;;;;;;6.03;1.20;;;10.50;99.90;;;;;;4981308;28;20046;-76
2023/10/31 00:15:18;;;;;;;1.17;0.82;;;10.50;99.90;;;;;;4983061;28;20057;-76
2023/10/31 00:17:44;;;;;;;2.60;1.08;;;10.50;99.90;;;;;;4981272;28;20046;-76
2023/10/31 00:20:09;;;;;;;3.35;0.90;;;10.50;99.90;;;;;;4981926;28;20077;-76
2023/10/31 00:22:35;;;;;;;2.00;0.82;;;10.50;99.90;;;;;;4965111;28;20043;-75
2023/10/31 00:25:00;;;;;;;1.20;0.73;;;10.40;99.90;;;;;;4982025;28;20058;-75
2023/10/31 00:27:26;;;;;;;0.90;0.90;;;10.40;99.90;;;;;;4982067;28;20115;-75
2023/10/31 00:29:51;;;;;;;2.22;1.60;;;10.40;99.90;;;;;;4982152;28;20246;-75
2023/10/31 00:32:17;;;;;;;6.70;1.30;;;10.40;99.90;;;;;;4980912;28;20489;-75
2023/10/31 00:34:43;;;;;;;3.45;1.77;;;10.30;99.90;;;;;;4981096;28;20042;-75
2023/10/31 00:37:08;;;;;;;6.20;2.35;;;10.40;99.90;;;;;;4980811;28;20046;-76
2023/10/31 00:39:34;;;;;;;3.80;1.50;;;10.40;99.90;;;;;;4981521;28;20167;-76
2023/10/31 00:41:59;;;;;;;4.90;1.92;;;10.40;99.90;;;;;;4983290;28;20046;-76
2023/10/31 00:44:25;;;;;;;7.57;2.60;;;10.40;99.90;;;;;;4981328;28;20388;-76
2023/10/31 00:46:50;;;;;;;4.97;2.03;;;10.40;99.90;;;;;;4980680;28;20180;-76
2023/10/31 00:49:16;;;;;;;4.70;1.88;;;10.40;99.90;;;;;;4981030;28;20065;-76
2023/10/31 00:51:41;;;;;;;6.22;2.55;;;10.30;99.90;;;;;;4981474;28;20050;-76
2023/10/31 00:54:07;;;;;;;3.05;2.15;;;10.40;99.90;;;;;;4980583;28;20050;-76
2023/10/31 00:56:32;;;;;;;6.50;2.45;;;10.40;99.90;;;;;;4982607;28;20611;-76
2023/10/31 00:58:58;;;;;;;6.50;1.52;;;10.40;99.90;;;;;;4981811;28;20378;-75
2023/10/31 01:01:24;;;;;;;5.82;2.40;;;10.40;99.90;;;;;;4982050;28;20049;-76
2023/10/31 01:03:49;;;;;;;10.07;2.83;;;10.40;99.90;;;;;;4978798;28;20449;-76
2023/10/31 01:06:15;;;;;;;5.10;2.38;;;10.30;99.90;;;;;;4981461;28;20034;-75
2023/10/31 01:08:40;;;;;;;3.67;2.10;;;10.30;99.90;;;;;;4981584;28;20077;-76
2023/10/31 01:11:06;;;;;;;3.97;1.80;;;10.40;99.90;;;;;;4980170;28;20050;-75
2023/10/31 01:13:31;;;;;;;5.60;1.98;;;10.40;99.90;;;;;;4982408;28;20493;-76
2023/10/31 01:15:57;;;;;;;4.53;1.55;;;10.30;99.90;;;;;;4981907;28;20586;-76
2023/10/31 01:18:22;;;;;;;2.55;1.40;;;10.40;99.90;;;;;;4980169;28;20804;-76
2023/10/31 01:20:48;;;;;;;2.88;1.20;;;10.30;99.90;;;;;;4980679;28;20053;-76
2023/10/31 01:23:14;;;;;;;5.47;1.45;;;10.30;99.90;;;;;;4980201;28;20409;-76
2023/10/31 01:25:39;;;;;;;10.55;2.13;;;10.30;99.90;;;;;;4982072;28;20035;-76
2023/10/31 01:28:05;;;;;;;3.45;1.58;;;10.30;99.90;;;;;;4963350;28;20128;-76
2023/10/31 01:30:30;;;;;;;5.75;1.67;;;10.30;99.90;;;;;;4980901;28;20050;-76
2023/10/31 01:32:56;;;;;;;3.80;1.02;;;10.30;99.90;;;;;;4979750;28;20056;-76
2023/10/31 01:35:22;;;;;;;3.17;1.38;;;10.30;99.90;;;;;;4980527;28;20132;-75
2023/10/31 01:37:47;;;;;;;4.90;1.45;;;10.30;99.90;;;;;;4982038;28;20039;-75
2023/10/31 01:40:13;;;;;;;4.57;1.05;;;10.30;99.90;;;;;;4980158;28;20382;-76
2023/10/31 01:42:39;;;;;;;2.25;1.17;;;10.30;99.90;;;;;;4980190;28;20085;-75
2023/10/31 01:45:06;;;;;;;4.05;1.52;;;10.20;99.90;;;;;;4980142;28;20073;-76
2023/10/31 01:47:32;;;;;;;1.90;0.93;;;10.20;99.90;;;;;;4996237;28;20047;-75
2023/10/31 01:49:59;;;;;;;3.30;1.20;;;10.20;99.90;;;;;;4963364;28;20053;-76
2023/10/31 01:52:25;;;;;;;1.95;0.90;;;10.20;99.90;;;;;;4966434;28;20047;-75
2023/10/31 01:54:50;;;;;;;3.22;1.00;;;10.20;99.90;;;;;;4980244;28;20332;-75
2023/10/31 01:57:20;;;;;;;2.53;0.95;;;10.20;99.90;;;;;;4979801;28;20137;-75
2023/10/31 01:59:46;;;;;;;2.85;1.20;;;10.20;99.90;;;;;;4979588;28;20121;-76
2023/10/31 02:02:12;;;;;;;3.28;1.17;;;10.20;99.90;;;;;;4978722;28;20141;-76
2023/10/31 02:04:37;;;;;;;1.60;0.73;;;10.20;99.90;;;;;;4980663;28;20454;-75
2023/10/31 02:07:03;;;;;;;4.30;1.38;;;10.20;99.90;;;;;;4981248;28;20039;-76
2023/10/31 02:09:30;;;;;;;7.53;1.25;;;10.20;99.90;;;;;;5078366;22;20573;-75
2023/10/31 02:11:55;;;;;;;2.70;1.27;;;10.20;99.90;;;;;;5020727;28;20049;-75
2023/10/31 02:14:24;;;;;;;6.95;0.85;;;10.20;99.90;;;;;;5020828;28;20042;-75
2023/10/31 02:16:50;;;;;;;3.60;1.38;;;10.20;99.90;;;;;;5019255;28;20479;-76
2023/10/31 02:19:20;;;;;;;3.70;0.90;;;10.20;99.90;;;;;;5022523;28;20200;-75
2023/10/31 02:21:46;;;;;;;2.67;1.20;;;10.20;99.90;;;;;;5022850;28;20072;-75
2023/10/31 02:24:11;;;;;;;3.58;0.95;;;10.20;99.90;;;;;;5022438;28;20483;-75
2023/10/31 02:26:37;;;;;;;4.45;1.80;;;10.20;99.90;;;;;;5024424;28;20046;-75
2023/10/31 02:29:03;;;;;;;7.32;1.77;;;10.20;99.90;;;;;;5024371;28;20216;-75
2023/10/31 02:31:29;;;;;;;4.20;1.17;;;10.20;99.90;;;;;;5006213;28;20049;-75
2023/10/31 02:33:54;;;;;;;5.75;1.20;;;10.20;99.90;;;;;;5022465;28;20042;-75
2023/10/31 02:36:20;;;;;;;2.83;1.58;;;10.20;99.90;;;;;;5022103;28;20048;-75
2023/10/31 02:38:46;;;;;;;6.32;1.23;;;10.20;99.90;;;;;;5022224;28;20103;-76
2023/10/31 02:41:12;;;;;;;2.80;1.02;;;10.20;99.90;;;;;;5022689;28;20052;-75
2023/10/31 02:43:39;;;;;;;2.25;1.40;;;10.20;99.90;;;;;;5022511;28;20045;-75
2023/10/31 02:46:04;;;;;;;5.45;1.38;;;10.20;99.90;;;;;;5023277;28;20098;-76
2023/10/31 02:48:37;;;;;;;5.15;2.65;;;10.20;99.90;;;;;;5022966;28;20045;-76
2023/10/31 02:51:07;;;;;;;8.18;1.17;;;10.20;99.90;;;;;;5023108;28;20054;-75
2023/10/31 02:53:33;;;;;;;6.28;1.50;;;10.20;99.90;;;;;;5022364;28;20037;-75
2023/10/31 02:55:59;;;;;;;4.00;1.45;;;10.20;99.90;;;;;;5022935;28;20080;-75
2023/10/31 02:58:24;;;;;;;2.42;1.10;;;10.20;99.90;;;;;;5023323;28;20076;-75
2023/10/31 03:00:50;;;;;;;2.67;1.20;;;10.20;99.90;;;;;;5023239;28;20558;-75
2023/10/31 03:03:15;;;;;;;5.38;1.20;;;10.20;99.90;;;;;;5020883;28;20052;-75
2023/10/31 03:05:41;;;;;;;3.20;1.45;;;10.30;99.90;;;;;;5023442;28;20103;-75
2023/10/31 03:08:08;;;;;;;4.95;2.00;;;10.30;99.90;;;;;;5004323;28;20049;-76
2023/10/31 03:10:33;;;;;;;5.88;2.05;;;10.30;99.90;;;;;;5022500;28;20503;-75
2023/10/31 03:12:59;;;;;;;4.80;1.80;;;10.30;99.90;;;;;;5023496;28;20099;-75
2023/10/31 03:15:24;;;;;;;7.45;1.30;;;10.30;99.90;;;;;;5021145;28;20096;-76
2023/10/31 03:17:51;;;;;;;5.55;1.45;;;10.30;99.90;;;;;;5020654;28;20042;-75
2023/10/31 03:20:17;;;;;;;2.58;1.38;;;10.30;99.90;;;;;;5023173;28;20041;-75
2023/10/31 03:22:42;;;;;;;5.13;1.15;;;10.30;99.90;;;;;;5021310;28;20056;-76
2023/10/31 03:25:08;;;;;;;4.63;0.88;;;10.30;99.90;;;;;;5022495;28;20229;-76
2023/10/31 03:27:34;;;;;;;8.70;1.25;;;10.30;99.90;;;;;;5005079;28;20037;-76
2023/10/31 03:29:59;;;;;;;4.45;0.90;;;10.30;99.90;;;;;;5020406;28;20511;-75
2023/10/31 03:32:25;;;;;;;1.55;0.80;;;10.30;99.90;;;;;;5003986;28;20263;-75
2023/10/31 03:34:50;;;;;;;3.72;0.93;;;10.30;99.90;;;;;;5021894;28;20073;-75
2023/10/31 03:37:16;;;;;;;1.95;1.17;;;10.30;99.90;;;;;;5021583;28;20049;-75
2023/10/31 03:39:42;;;;;;;5.72;1.38;;;10.30;99.90;;;;;;5020990;28;20038;-75
2023/10/31 03:42:08;;;;;;;1.70;0.52;;;10.30;99.90;;;;;;5021123;28;20073;-75
2023/10/31 03:44:33;;;;;;;5.00;0.93;;;10.30;99.90;;;;;;5021724;28;20541;-76
2023/10/31 03:46:59;;;;;;;1.75;1.00;;;10.30;99.90;;;;;;5020726;28;20438;-75
2023/10/31 03:49:24;;;;;;;2.05;0.60;;;10.40;99.90;;;;;;5021515;28;20546;-76
2023/10/31 03:51:50;;;;;;;3.85;0.80;;;10.30;99.90;;;;;;5021221;28;20377;-76
2023/10/31 03:54:16;;;;;;;2.00;0.73;;;10.30;99.90;;;;;;5020330;28;20541;-75
2023/10/31 03:56:43;;;;;;;4.10;1.27;;;10.30;99.90;;;;;;5021386;28;20041;-76
2023/10/31 03:59:09;;;;;;;8.05;1.20;;;10.40;99.90;;;;;;5004188;28;20077;-76
2023/10/31 04:01:35;;;;;;;6.60;1.00;;;10.30;99.90;;;;;;5020945;28;20073;-75
2023/10/31 04:04:01;;;;;;;0.85;0.45;;;10.40;99.90;;;;;;5021665;28;20089;-75
2023/10/31 04:06:27;;;;;;;10.45;1.25;;;10.40;99.90;;;;;;5022317;28;20034;-76
2023/10/31 04:08:53;;;;;;;3.45;0.40;;;10.30;99.90;;;;;;5019967;28;20049;-76
2023/10/31 04:11:18;;;;;;;4.15;0.60;;;10.30;99.90;;;;;;5021116;28;20485;-76
2023/10/31 04:13:44;;;;;;;4.22;0.82;;;10.30;99.90;;;;;;5021100;28;20042;-76
2023/10/31 04:16:10;;;;;;;2.03;0.52;;;10.30;99.90;;;;;;5003885;28;20156;-75
2023/10/31 04:18:36;;;;;;;1.05;0.52;;;10.30;99.90;;;;;;5019974;28;20889;-76
2023/10/31 04:21:02;;;;;;;2.33;0.50;;;10.30;99.90;;;;;;5021125;28;20041;-76
2023/10/31 04:23:28;;;;;;;1.65;0.50;;;10.30;99.90;;;;;;5021700;28;20107;-76
2023/10/31 04:25:53;;;;;;;2.53;0.40;;;10.30;99.90;;;;;;5020301;28;20038;-76
2023/10/31 04:28:19;;;;;;;3.92;0.60;;;10.30;99.90;;;;;;5021392;28;20046;-76
2023/10/31 04:30:45;;;;;;;1.23;0.40;;;10.30;99.90;;;;;;5021625;28;20159;-76
2023/10/31 04:33:10;;;;;;;0.88;0.38;;;10.30;99.90;;;;;;5002638;28;20481;-76
2023/10/31 04:35:36;;;;;;;4.07;0.93;;;10.30;99.90;;;;;;5021845;28;20091;-75
2023/10/31 04:38:01;;;;;;;1.95;1.23;;;10.30;99.90;;;;;;5021894;28;20060;-76
2023/10/31 04:40:27;;;;;;;1.23;0.40;;;10.30;99.90;;;;;;5020683;28;20040;-76
2023/10/31 04:42:53;;;;;;;0.80;0.30;;;10.30;99.90;;;;;;5020400;28;20049;-76
2023/10/31 04:45:19;;;;;;;1.95;0.35;;;10.30;99.90;;;;;;5021002;28;20045;-76
2023/10/31 04:47:45;;;;;;;2.22;0.45;;;10.30;99.90;;;;;;5018948;28;20436;-75
2023/10/31 04:50:10;;;;;;;1.15;0.82;;;10.20;99.90;;;;;;5021122;28;20042;-75
2023/10/31 04:52:36;;;;;;;7.15;0.88;;;10.30;99.90;;;;;;5020647;28;20503;-76
2023/10/31 04:55:01;;;;;;;2.03;0.70;;;10.30;99.90;;;;;;5021394;28;20095;-76
2023/10/31 04:57:27;;;;;;;0.88;0.63;;;10.20;99.90;;;;;;5019945;28;20064;-76
2023/10/31 04:59:54;;;;;;;0.73;0.25;;;10.20;99.90;;;;;;5021420;28;20128;-76
2023/10/31 05:02:22;;;;;;;1.90;0.35;;;10.20;99.90;;;;;;5018537;28;20056;-76
2023/10/31 05:04:50;;;;;;;3.35;0.90;;;10.20;99.90;;;;;;5020091;28;20049;-76
2023/10/31 05:07:17;;;;;;;1.92;1.42;;;10.20;99.90;;;;;;5016012;28;20076;-75
2023/10/31 05:09:42;;;;;;;2.05;0.40;;;10.20;99.90;;;;;;5000801;28;20058;-76
2023/10/31 05:12:08;;;;;;;1.42;0.82;;;10.20;99.90;;;;;;5000223;28;20061;-76
2023/10/31 05:14:33;;;;;;;0.60;0.43;;;10.20;99.90;;;;;;5001938;28;20045;-76
2023/10/31 05:16:59;;;;;;;2.72;0.93;;;10.20;99.90;;;;;;5000344;28;20034;-76
2023/10/31 05:19:25;;;;;;;2.33;0.52;;;10.20;99.90;;;;;;4983841;28;20137;-76
2023/10/31 05:21:51;;;;;;;0.85;0.47;;;10.20;99.90;;;;;;5000057;28;20073;-76
2023/10/31 05:24:17;;;;;;;6.13;0.82;;;10.30;99.90;;;;;;5000686;28;20100;-76
2023/10/31 05:26:43;;;;;;;1.08;0.95;;;10.30;99.90;;;;;;5001428;28;20045;-76
2023/10/31 05:29:08;;;;;;;0.80;0.52;;;10.30;99.90;;;;;;4999695;28;20068;-76
2023/10/31 05:31:34;;;;;;;2.15;1.30;;;10.30;99.90;;;;;;4998900;28;20081;-76
2023/10/31 05:34:00;;;;;;;2.35;0.82;;;10.30;99.90;;;;;;5000221;28;20092;-75
2023/10/31 05:36:27;;;;;;;2.20;0.50;;;10.30;99.90;;;;;;4999860;28;20125;-76
2023/10/31 05:38:53;;;;;;;3.05;0.65;;;10.30;99.90;;;;;;5001506;28;20057;-76
2023/10/31 05:41:19;;;;;;;9.35;0.80;;;10.40;99.90;;;;;;5000333;28;20038;-75
2023/10/31 05:43:45;;;;;;;1.30;0.60;;;10.30;99.90;;;;;;4999760;28;20713;-76
2023/10/31 05:46:10;;;;;;;1.33;0.45;;;10.40;99.90;;;;;;5000023;28;20093;-76
2023/10/31 05:48:45;;;;;;;3.75;0.80;;;10.40;99.90;;;;;;4999672;28;20041;-76
2023/10/31 05:51:16;;;;;;;1.70;1.17;;;10.40;99.90;;;;;;4999673;28;20042;-76
2023/10/31 05:53:44;;;;;;;2.03;0.70;;;10.40;99.90;;;;;;5000796;28;20491;-76
2023/10/31 05:56:12;;;;;;;2.08;0.80;;;10.40;99.90;;;;;;4987160;28;20064;-76
2023/10/31 05:58:39;;;;;;;2.42;1.13;;;10.40;99.90;;;;;;5004993;28;20033;-76
2023/10/31 06:01:05;;;;;;;5.43;0.88;;;10.40;99.90;;;;;;5023673;28;20053;-76
2023/10/31 06:03:30;;;;;;;4.63;1.42;;;10.40;99.90;;;;;;5024153;28;20388;-76
2023/10/31 06:05:56;;;;;;;2.15;0.88;;;10.50;99.90;;;;;;5025226;28;20076;-75
2023/10/31 06:08:24;;;;;;;6.93;0.88;;;10.40;99.90;;;;;;5024338;28;20058;-76
2023/10/31 06:10:50;;;;;;;1.35;1.10;;;10.40;99.90;;;;;;5022701;28;20056;-77
2023/10/31 06:13:16;;;;;;;1.15;0.75;;;10.40;99.90;;;;;;5024197;28;20332;-76
2023/10/31 06:15:42;;;;;;;2.17;1.08;;;10.40;99.90;;;;;;5023960;28;20447;-76
2023/10/31 06:18:07;;;;;;;2.83;1.08;;;10.40;99.90;;;;;;5022986;28;20106;-76
2023/10/31 06:20:34;;;;;;;4.15;1.45;;;10.40;99.90;;;;;;5024499;28;20048;-76
2023/10/31 06:23:03;;;;;;;2.00;1.08;;;10.30;99.90;;;;;;5024643;28;20103;-76
2023/10/31 06:25:28;;;;;;;4.13;0.68;;;10.40;99.90;;;;;;5023931;28;20049;-76
2023/10/31 06:27:54;;;;;;;2.78;0.60;;;10.40;99.90;;;;;;5022980;28;20046;-76
2023/10/31 06:30:20;;;;;;;1.73;0.77;;;10.40;99.90;;;;;;5023857;28;20053;-76
2023/10/31 06:32:45;;;;;;;0.98;0.70;;;10.30;99.90;;;;;;5023035;28;20060;-75
2023/10/31 06:35:11;;;;;;;0.45;0.25;;;10.30;99.90;;;;;;5023432;28;20124;-75
2023/10/31 06:37:36;;;;;;;12.43;0.85;;;10.30;99.90;;;;;;5023607;28;20129;-75
2023/10/31 06:40:03;;;;;;;0.45;0.40;;;10.30;99.90;;;;;;5007604;28;20056;-75
2023/10/31 06:42:30;;;;;;;0.35;0.32;;;10.20;99.90;;;;;;5023767;28;20049;-75
2023/10/31 06:44:55;;;;;;;0.77;0.20;;;10.30;99.90;;;;;;5023225;28;20054;-75
2023/10/31 06:47:21;;;;;;;4.47;0.20;;;10.20;99.90;;;;;;5021981;28;20605;-75
2023/10/31 06:49:46;;;;;;;1.50;0.30;;;10.20;99.90;;;;;;5023420;28;20322;-75
2023/10/31 06:52:12;;;;;;;1.42;0.30;;;10.10;99.90;;;;;;5022158;28;20460;-75
2023/10/31 06:54:38;;;;;;;0.50;0.35;;;10.20;99.90;;;;;;5023718;28;20060;-75
2023/10/31 06:57:04;;;;;;;0.52;0.28;;;10.10;99.90;;;;;;5004900;28;20033;-75
2023/10/31 06:59:29;;;;;;;4.68;0.75;;;10.10;99.90;;;;;;5023147;28;20523;-75
2023/10/31 07:01:55;;;;;;;0.30;0.30;;;10.10;99.90;;;;;;5020066;28;20046;-75
2023/10/31 07:04:21;;;;;;;1.65;0.30;;;10.20;99.90;;;;;;5018536;28;20394;-75
2023/10/31 07:06:46;;;;;;;2.55;0.30;;;10.20;99.90;;;;;;5019310;28;20052;-76
2023/10/31 07:09:12;;;;;;;3.08;0.50;;;10.20;99.90;;;;;;5019914;28;20053;-77
2023/10/31 07:11:37;;;;;;;2.15;0.30;;;10.20;99.90;;;;;;5021846;28;20038;-77
2023/10/31 07:14:03;;;;;;;0.30;0.30;;;10.30;99.90;;;;;;5023363;28;20038;-76
2023/10/31 07:16:32;;;;;;;1.20;0.50;;;10.30;99.90;;;;;;5021569;28;20123;-76
2023/10/31 07:18:57;;;;;;;1.85;0.52;;;10.30;99.90;;;;;;5021474;28;20040;-77
2023/10/31 07:21:23;;;;;;;1.45;0.55;;;10.30;99.90;;;;;;5021487;28;20038;-77
2023/10/31 07:23:48;;;;;;;2.67;0.40;;;10.30;99.90;;;;;;5022113;28;20392;-77
2023/10/31 07:26:14;;;;;;;0.20;0.20;;;10.30;99.90;;;;;;5021471;28;20139;-77
2023/10/31 07:28:40;;;;;;;0.95;0.30;;;10.30;99.90;;;;;;5020519;28;20080;-75
2023/10/31 07:31:05;;;;;;;0.30;0.30;;;10.40;99.90;;;;;;5019290;28;20037;-75
2023/10/31 07:33:31;;;;;;;2.03;0.20;;;10.40;99.90;;;;;;5023445;28;20077;-74
2023/10/31 07:35:56;;;;;;;1.92;0.40;;;10.40;99.90;;;;;;5019872;28;20678;-75
2023/10/31 07:38:22;;;;;;;1.55;0.30;;;10.40;99.90;;;;;;5003274;28;20453;-75
2023/10/31 07:40:48;;;;;;;0.73;0.30;;;10.40;99.90;;;;;;5006191;28;20115;-75
2023/10/31 07:43:15;;;;;;;0.30;0.28;;;10.40;99.90;;;;;;5022151;28;20506;-75
2023/10/31 07:45:40;;;;;;;1.30;0.30;;;10.40;99.90;;;;;;5019412;28;20081;-75
2023/10/31 07:48:07;;;;;;;0.82;0.22;;;10.40;99.90;;;;;;5022089;28;20061;-75
2023/10/31 07:50:32;;;;;;;0.63;0.57;;;10.50;99.90;;;;;;5021578;28;20049;-75
2023/10/31 07:52:58;;;;;;;0.38;0.20;;;10.50;99.90;;;;;;5022522;28;20037;-75
2023/10/31 07:55:23;;;;;;;1.75;0.25;;;10.50;99.90;;;;;;5023633;28;20080;-75
2023/10/31 07:57:49;;;;;;;0.30;0.17;;;10.50;99.90;;;;;;5023402;28;20655;-75
2023/10/31 08:00:15;;;;;;;0.63;0.63;;;10.50;99.90;;;;;;5021719;28;20037;-75
2023/10/31 08:02:41;;;;;;;0.22;0.22;;;10.50;99.90;;;;;;5020265;28;20044;-75
2023/10/31 08:05:07;;;;;;;3.85;0.35;;;10.50;99.90;;;;;;5020989;28;20565;-76
2023/10/31 08:07:33;;;;;;;0.65;0.17;;;10.60;99.90;;;;;;5038564;28;20045;-76
2023/10/31 08:09:59;;;;;;;0.60;0.15;;;10.60;99.90;;;;;;5022514;28;20156;-75
2023/10/31 08:12:24;;;;;;;0.20;0.20;;;10.50;99.90;;;;;;5021635;28;20508;-75
2023/10/31 08:14:50;;;;;;;1.13;0.20;;;10.60;99.90;;;;;;5023101;28;20041;-76
2023/10/31 08:17:18;;;;;;;0.90;0.30;;;10.60;99.90;;;;;;5018421;28;20050;-76
2023/10/31 08:19:43;;;;;;;1.65;0.13;;;10.60;99.90;;;;;;5021994;28;20037;-76
2023/10/31 08:22:09;;;;;;;1.75;0.25;;;10.60;99.90;;;;;;5021014;28;20049;-76
2023/10/31 08:24:36;;;;;;;1.40;0.40;;;10.60;99.90;;;;;;5021911;28;20049;-76
2023/10/31 08:27:02;;;;;;;2.53;0.30;;;10.60;99.90;;;;;;5023032;28;20041;-75
2023/10/31 08:29:28;;;;;;;0.20;0.10;;;10.60;99.90;;;;;;5021309;28;20439;-75
2023/10/31 08:31:53;;;;;;;3.60;0.77;;;10.60;99.90;;;;;;5019746;28;20496;-75
2023/10/31 08:34:19;;;;;;;1.50;0.50;;;10.60;99.90;;;;;;5020601;28;21029;-75
2023/10/31 08:36:44;;;;;;;5.82;1.25;;;10.60;99.90;;;;;;5021813;28;20045;-75
2023/10/31 08:39:10;;;;;;;4.35;1.30;;;10.60;99.90;;;;;;5020363;28;20135;-75
2023/10/31 08:41:37;;;;;;;2.83;0.88;;;10.70;99.90;;;;;;5019976;28;20061;-75
2023/10/31 08:44:03;;;;;;;4.82;0.70;;;10.70;99.90;;;;;;5020642;28;20053;-75
2023/10/31 08:46:29;;;;;;;0.93;0.43;;;10.70;99.90;;;;;;5020234;28;20446;-76
2023/10/31 08:48:54;;;;;;;1.08;0.73;;;10.70;99.90;;;;;;5019986;28;20041;-75
2023/10/31 08:51:20;;;;;;;1.05;0.45;;;10.70;99.90;;;;;;5021237;28;20073;-76
2023/10/31 08:53:45;;;;;;;1.05;0.47;;;10.70;99.90;;;;;;5020136;28;20056;-76
2023/10/31 08:56:11;;;;;;;2.30;0.30;;;10.70;99.90;;;;;;5020130;28;20034;-76
2023/10/31 08:58:36;;;;;;;3.30;0.73;;;10.70;99.90;;;;;;5021000;28;20455;-76
2023/10/31 09:01:02;;;;;;;3.22;0.60;;;10.70;99.90;;;;;;5019711;28;20329;-76
2023/10/31 09:03:28;;;;;;;0.70;0.52;;;10.70;99.90;;;;;;5018741;28;20049;-76
2023/10/31 09:05:53;;;;;;;0.90;0.50;;;10.80;99.90;;;;;;5020861;28;20115;-76
2023/10/31 09:08:19;;;;;;;2.75;0.70;;;10.80;99.90;;;;;;5020647;28;20523;-76
2023/10/31 09:10:46;;;;;;;0.98;0.28;;;10.80;99.90;;;;;;5021566;28;20073;-76
2023/10/31 09:13:12;;;;;;;1.63;0.20;;;10.80;99.90;;;;;;5020530;28;20096;-76
2023/10/31 09:15:38;;;;;;;1.08;0.47;;;10.80;99.90;;;;;;5020248;28;20045;-76
2023/10/31 09:18:04;;;;;;;3.85;0.43;;;10.80;99.90;;;;;;5020524;28;20045;-76
2023/10/31 09:20:30;;;;;;;2.28;0.45;;;10.80;99.90;;;;;;5004143;28;20640;-76
2023/10/31 09:22:56;;;;;;;3.97;0.52;;;10.80;99.90;;;;;;5021178;28;20527;-76
2023/10/31 09:25:21;;;;;;;1.15;0.40;;;10.80;99.90;;;;;;5019288;28;20041;-77
2023/10/31 09:27:47;;;;;;;1.17;0.63;;;10.80;99.90;;;;;;5020900;28;20446;-76
2023/10/31 09:30:13;;;;;;;1.92;0.50;;;10.80;99.90;;;;;;5023871;28;20061;-76
2023/10/31 09:32:38;;;;;;;3.67;0.63;;;10.90;99.90;;;;;;5022657;28;20048;-76
2023/10/31 09:35:05;;;;;;;4.03;0.52;;;10.90;99.90;;;;;;5007360;28;20041;-76
2023/10/31 09:37:31;;;;;;;2.33;0.40;;;10.90;99.90;;;;;;5023535;28;20042;-76
2023/10/31 09:39:56;;;;;;;0.73;0.30;;;10.90;99.90;;;;;;5024105;28;20056;-76
2023/10/31 09:42:22;;;;;;;1.33;0.40;;;10.90;99.90;;;;;;5023360;28;20042;-76
2023/10/31 09:44:47;;;;;;;2.55;0.55;;;10.90;99.90;;;;;;5024401;28;20091;-76
2023/10/31 09:47:14;;;;;;;4.40;0.50;;;11.00;99.90;;;;;;5022680;28;20312;-76
2023/10/31 09:49:40;;;;;;;1.83;0.57;;;11.00;99.90;;;;;;5022769;28;20068;-76
2023/10/31 09:52:07;;;;;;;5.50;0.95;;;11.00;99.90;;;;;;5023680;28;20045;-76
2023/10/31 09:54:34;;;;;;;0.50;0.38;;;11.00;99.90;;;;;;5023313;28;20424;-76
2023/10/31 09:57:00;;;;;;;3.03;0.40;;;11.00;99.90;;;;;;5023763;28;20139;-76
2023/10/31 09:59:26;;;;;;;1.20;0.30;;;11.00;99.90;;;;;;5023779;28;20401;-76
2023/10/31 10:01:51;;;;;;;3.22;0.32;;;11.00;99.90;;;;;;5021837;28;20127;-76
2023/10/31 10:04:18;;;;;;;2.05;0.40;;;11.00;99.90;;;;;;5022928;28;20037;-76
2023/10/31 10:07:00;;;;;;;1.98;0.55;;;11.00;99.90;;;;;;5023037;28;20377;-76
2023/10/31 10:09:27;;;;;;;0.35;0.30;;;11.00;99.90;;;;;;5022066;28;20107;-76
2023/10/31 10:11:52;;;;;;;0.70;0.30;;;11.00;99.90;;;;;;5023840;28;20052;-76
2023/10/31 10:14:18;;;;;;;1.88;0.38;;;11.00;99.90;;;;;;5023575;28;20447;-76
2023/10/31 10:16:44;;;;;;;3.33;0.50;;;11.10;99.90;;;;;;5005041;28;20120;-76
2023/10/31 10:19:19;;;;;;;5.93;0.50;;;11.10;99.90;;;;;;5005536;28;20407;-76
2023/10/31 10:21:53;;;;;;;1.38;0.10;;;11.10;99.90;;;;;;5024086;28;20038;-76
2023/10/31 10:24:22;;;;;;;3.78;1.45;;;11.10;99.90;;;;;;5022224;28;20223;-76
2023/10/31 10:26:48;;;;;;;1.17;0.30;;;11.10;99.90;;;;;;5021898;28;20052;-76
2023/10/31 10:29:15;;;;;;;0.30;0.30;;;11.10;99.90;;;;;;5021876;28;20045;-76
2023/10/31 10:31:42;;;;;;;2.63;1.45;;;11.10;99.90;;;;;;5021854;28;20053;-77
2023/10/31 10:34:08;;;;;;;2.47;0.50;;;11.10;99.90;;;;;;5023205;28;20082;-77
2023/10/31 10:36:34;;;;;;;2.72;0.57;;;11.10;99.90;;;;;;5021760;28;20527;-76
2023/10/31 10:39:00;;;;;;;0.90;0.47;;;11.10;99.90;;;;;;5022163;28;20038;-76
2023/10/31 10:41:27;;;;;;;1.17;0.30;;;11.10;99.90;;;;;;5022994;28;20044;-76
2023/10/31 10:44:03;;;;;;;0.80;0.70;;;11.10;99.90;;;;;;5021966;28;20262;-76
2023/10/31 10:46:33;;;;;;;3.25;1.20;;;11.20;99.90;;;;;;5021863;28;20045;-76
2023/10/31 10:48:59;;;;;;;3.55;0.88;;;11.20;99.90;;;;;;5022401;28;20045;-76
2023/10/31 10:51:32;;;;;;;4.30;0.80;;;11.20;99.90;;;;;;5021360;28;20045;-76
2023/10/31 10:54:09;;;;;;;1.90;0.68;;;11.20;99.90;;;;;;5021045;28;20042;-77
2023/10/31 10:56:38;;;;;;;2.63;0.55;;;11.20;99.90;;;;;;5022558;28;20102;-77
2023/10/31 10:59:10;;;;;;;1.45;0.70;;;11.20;99.90;;;;;;5021031;28;20040;-76
2023/10/31 11:01:37;;;;;;;2.25;0.40;;;11.20;99.90;;;;;;5022139;28;20041;-77
2023/10/31 11:04:05;;;;;;;1.70;0.30;;;11.10;99.90;;;;;;5023213;28;20072;-76
2023/10/31 11:06:31;;;;;;;3.83;0.88;;;11.00;99.90;;;;;;5005506;28;20179;-76
2023/10/31 11:08:58;;;;;;;5.38;0.50;;;11.00;99.90;;;;;;5003041;28;20165;-77
2023/10/31 11:11:24;;;;;;;2.17;0.45;;;11.00;99.90;;;;;;5001738;28;20969;-76
2023/10/31 11:13:55;;;;;;;0.93;0.40;;;11.00;99.90;;;;;;5001563;28;20038;-77
2023/10/31 11:16:29;;;;;;;2.42;0.60;;;11.00;99.90;;;;;;5001841;28;20041;-76
2023/10/31 11:18:56;;;;;;;7.35;0.50;;;11.00;99.90;;;;;;5002453;28;20077;-77
2023/10/31 11:21:28;;;;;;;3.80;0.93;;;11.00;99.90;;;;;;5000834;28;20038;-76
2023/10/31 11:23:59;;;;;;;1.70;0.57;;;11.00;99.90;;;;;;5002986;28;20570;-76
2023/10/31 11:26:30;;;;;;;1.50;0.40;;;10.90;99.90;;;;;;5001600;28;20093;-76
2023/10/31 11:29:06;;;;;;;0.85;0.38;;;10.90;99.90;;;;;;5015635;28;20558;-76
2023/10/31 11:31:35;;;;;;;5.25;0.73;;;11.00;99.90;;;;;;5021203;28;20132;-77
2023/10/31 11:34:02;;;;;;;1.75;0.63;;;11.00;99.90;;;;;;5020150;28;20132;-76
2023/10/31 11:36:32;;;;;;;3.15;0.40;;;11.00;99.90;;;;;;5021618;28;20605;-76
2023/10/31 11:39:15;;;;;;;1.00;0.32;;;11.00;99.90;;;;;;5022184;28;20041;-77
2023/10/31 11:41:49;;;;;;;2.08;0.82;;;11.00;99.90;;;;;;5020867;28;20480;-77
2023/10/31 11:44:15;;;;;;;3.83;0.57;;;11.10;99.90;;;;;;5016946;28;20515;-78
2023/10/31 11:46:40;;;;;;;6.63;0.98;;;11.10;99.90;;;;;;5020819;28;20030;-79
2023/10/31 11:49:07;;;;;;;0.68;0.50;;;11.10;99.90;;;;;;5020249;28;20103;-78
2023/10/31 11:51:32;;;;;;;1.75;0.38;;;11.20;99.90;;;;;;5021196;28;20050;-78
2023/10/31 11:54:01;;;;;;;2.15;0.40;;;11.20;99.90;;;;;;5005384;28;20549;-78
2023/10/31 11:56:27;;;;;;;3.38;0.60;;;11.20;99.90;;;;;;5021600;28;20045;-78
2023/10/31 11:59:00;;;;;;;3.30;0.50;;;11.20;99.90;;;;;;5018620;28;20040;-79
2023/10/31 12:01:26;;;;;;;3.42;0.77;;;11.20;99.90;;;;;;5021062;28;20071;-78
2023/10/31 12:03:52;;;;;;;2.80;0.68;;;11.30;99.90;;;;;;5020875;28;20455;-78
2023/10/31 12:06:18;;;;;;;1.67;0.40;;;11.30;99.90;;;;;;5021885;28;20037;-77
2023/10/31 12:08:44;;;;;;;4.63;1.05;;;11.40;99.90;;;;;;5003985;28;20226;-78
2023/10/31 12:11:16;;;;;;;0.25;0.25;;;11.40;99.90;;;;;;5010271;28;20115;-78
2023/10/31 12:14:04;;;;;;;1.25;0.40;;;11.40;99.90;;;;;;5021210;28;20037;-78
2023/10/31 12:16:32;;;;;;;2.53;0.55;;;11.40;99.90;;;;;;5004262;28;20080;-81
2023/10/31 12:18:59;;;;;;;3.40;1.20;;;11.40;99.90;;;;;;5020889;28;20033;-79
2023/10/31 12:21:43;;;;;;;3.50;0.57;;;11.40;99.90;;;;;;5020153;28;20510;-80
2023/10/31 12:24:10;;;;;;;1.05;0.50;;;11.50;99.90;;;;;;5017874;28;20087;-76
2023/10/31 12:26:36;;;;;;;5.15;0.75;;;11.50;99.90;;;;;;5020020;28;20037;-77
2023/10/31 12:29:17;;;;;;;0.52;0.35;;;11.40;99.90;;;;;;5021315;28;20045;-77
2023/10/31 12:31:48;;;;;;;0.32;0.30;;;11.40;99.90;;;;;;5012785;28;20045;-81
2023/10/31 12:34:19;;;;;;;1.42;0.80;;;11.40;99.90;;;;;;5018592;28;20303;-80
2023/10/31 12:36:50;;;;;;;1.02;0.35;;;11.40;99.90;;;;;;5020510;28;20033;-78
2023/10/31 12:39:17;;;;;;;2.07;0.80;;;11.40;99.90;;;;;;5020505;28;20131;-78
2023/10/31 12:41:44;;;;;;;2.88;0.68;;;11.40;99.90;;;;;;5020233;28;20422;-80